Time;durP1;ratioP1;P1;durP2;ratioP2;P2;SDS_P1;SDS_P2;PMS_P1;PMS_P2;Temp;Humidity;BMP_temperature;BMP_pressure;BME280_temperature;BME280_humidity;BME280_pressure;Samples;Min_cycle;Max_cycle;Signal;HPM_P1;HPM_P2
2021/03/09 00:02:00;;;;;;;;;;;;;;;7.11;51.78;101351.38;4971639;28;11585;-75
2021/03/09 00:04:42;;;;;;;;;;;;;;;;;;;;;
2021/03/09 00:07:13;;;;;;;;;;;;;;;7.07;51.68;101346.91;4960091;28;6860;-75
2021/03/09 00:09:51;;;;;;;;;;;;;;;7.08;51.96;101355.53;4989346;28;7388;-75
2021/03/09 00:12:21;;;;;;;;;;;;;;;7.06;51.29;101354.56;4991466;28;7106;-76
2021/03/09 00:15:01;;;;;;;;;;;;;;;7.04;52.22;101346.75;4982318;28;6816;-76
2021/03/09 00:17:39;;;;;;;;;;;;;;;;;;;;;
2021/03/09 00:20:17;;;;;;;;;;;;;;;7.00;52.23;101345.69;4946406;28;7402;-76
2021/03/09 00:23:01;;;;;;;;;;;;;;;6.99;51.86;101345.63;4990090;28;7413;-76
2021/03/09 00:25:45;;;;;;;;;;;;;;;6.99;52.12;101343.94;4946934;28;11145;-76
2021/03/09 00:28:14;;;;;;;;;;;;;;;6.97;52.06;101348.16;4976464;28;7480;-76
2021/03/09 00:30:57;;;;;;;;;;;;;;;6.94;52.01;101340.25;4995837;28;7682;-76
2021/03/09 00:33:23;;;;;;;;;;;;;;;6.95;51.85;101341.16;4970110;28;11265;-76
2021/03/09 00:35:56;;;;;;;;;;;;;;;6.94;51.88;101339.38;4942556;28;11442;-76
2021/03/09 00:38:50;;;;;;;;;;;;;;;6.92;52.08;101347.06;4973303;28;11213;-76
2021/03/09 00:41:18;;;;;;;;;;;;;;;6.90;52.37;101334.88;4981319;28;11215;-76
2021/03/09 00:43:53;;;;;;;;;;;;;;;6.89;52.15;101336.59;4987660;28;7103;-76
2021/03/09 00:46:24;;;;;;;;;;;;;;;6.88;52.33;101331.34;4936046;28;12815;-75
2021/03/09 00:51:47;;;;;;;;;;;;;;;6.87;52.33;101327.88;4945622;28;11153;-76
2021/03/09 00:54:13;;;;;;;;;;;;;;;6.86;52.35;101341.63;4987962;28;7707;-76
2021/03/09 00:56:38;;;;;;;;;;;;;;;6.85;52.49;101329.53;4978255;28;6791;-76
2021/03/09 00:59:10;;;;;;;;;;;;;;;6.84;52.55;101322.59;4986765;28;7667;-76
2021/03/09 01:01:43;;;;;;;;;;;;;;;6.83;52.64;101333.72;4991807;28;7039;-75
2021/03/09 01:04:09;;;;;;;;;;;;;;;6.81;52.70;101322.44;4945608;28;6903;-76
2021/03/09 01:06:45;;;;;;;;;;;;;;;6.81;52.77;101324.13;4958570;28;7513;-75
2021/03/09 01:09:11;;;;;;;;;;;;;;;6.80;52.55;101315.47;4954700;28;7254;-76
2021/03/09 01:11:58;;;;;;;;;;;;;;;6.78;52.59;101319.69;4974218;28;7453;-76
2021/03/09 01:14:27;;;;;;;;;;;;;;;6.78;52.66;101324.84;4954865;28;11314;-76
2021/03/09 01:17:12;;;;;;;;;;;;;;;6.76;52.60;101321.31;4982231;28;11486;-76
2021/03/09 01:20:06;;;;;;;;;;;;;;;6.73;52.50;101321.19;4950094;28;12881;-76
2021/03/09 01:22:48;;;;;;;;;;;;;;;6.72;52.60;101317.72;5003054;28;11161;-76
2021/03/09 01:25:14;;;;;;;;;;;;;;;6.71;52.67;101315.94;4990320;28;7691;-75
2021/03/09 01:27:43;;;;;;;;;;;;;;;6.70;52.57;101321.03;4987950;28;7066;-76
2021/03/09 01:30:30;;;;;;;;;;;;;;;6.68;52.93;101312.34;4974491;28;7688;-76
2021/03/09 01:33:22;;;;;;;;;;;;;;;6.68;52.73;101314.91;4950208;28;13169;-76
2021/03/09 01:35:59;;;;;;;;;;;;;;;6.66;52.87;101317.44;4957649;28;11378;-76
2021/03/09 01:38:50;;;;;;;;;;;;;;;6.65;52.66;101320.81;4951586;28;11100;-76
2021/03/09 01:41:36;;;;;;;;;;;;;;;6.64;52.82;101315.59;4961781;28;11103;-76
2021/03/09 01:44:10;;;;;;;;;;;;;;;6.62;52.57;101309.47;4979964;28;11284;-76
2021/03/09 01:46:46;;;;;;;;;;;;;;;6.61;52.79;101298.28;4969673;28;7371;-76
2021/03/09 01:49:22;;;;;;;;;;;;;;;6.60;53.14;101293.00;4970492;28;6816;-76
2021/03/09 01:51:59;;;;;;;;;;;;;;;6.57;53.00;101293.75;4956601;28;7167;-76
2021/03/09 01:54:37;;;;;;;;;;;;;;;6.57;52.67;101301.50;4955964;28;11184;-76
2021/03/09 01:57:06;;;;;;;;;;;;;;;6.56;52.90;101294.56;4966111;28;11309;-76
2021/03/09 01:59:37;;;;;;;;;;;;;;;6.56;53.06;101288.50;4950486;28;7700;-76
2021/03/09 02:02:03;;;;;;;;;;;;;;;6.54;53.47;101291.03;4994406;28;7690;-75
2021/03/09 02:04:35;;;;;;;;;;;;;;;6.54;53.08;101284.97;4950867;28;8797;-75
2021/03/09 02:07:17;;;;;;;;;;;;;;;6.51;52.87;101284.84;4934946;28;15225;-75
2021/03/09 02:10:02;;;;;;;;;;;;;;;6.52;52.99;101281.44;4965932;28;6810;-76
2021/03/09 02:12:37;;;;;;;;;;;;;;;6.52;53.09;101278.88;4974415;28;12412;-75
2021/03/09 02:18:35;;;;;;;;;;;;;;;6.49;52.90;101277.03;4987423;28;11747;-75
2021/03/09 02:21:33;;;;;;;;;;;;;;;6.47;53.24;101264.88;4983589;28;11535;-76
2021/03/09 02:24:45;;;;;;;;;;;;;;;6.46;53.24;101270.84;4981865;28;11465;-76
2021/03/09 02:28:03;;;;;;;;;;;;;;;6.45;53.33;101264.81;4961712;28;11257;-76
2021/03/09 02:33:46;;;;;;;;;;;;;;;6.42;53.09;101253.47;4968572;28;11333;-75
2021/03/09 02:36:37;;;;;;;;;;;;;;;6.40;53.26;101241.34;4942807;28;11017;-76
2021/03/09 02:39:53;;;;;;;;;;;;;;;6.38;53.86;101247.22;4965976;28;11294;-76
2021/03/09 02:42:50;;;;;;;;;;;;;;;6.37;53.04;101242.88;4959427;28;10986;-75
2021/03/09 02:45:24;;;;;;;;;;;;;;;6.35;53.56;101242.81;4973791;28;11230;-76
2021/03/09 02:47:55;;;;;;;;;;;;;;;6.35;53.73;101236.78;4971709;28;8453;-75
2021/03/09 02:50:25;;;;;;;;;;;;;;;6.32;53.41;101231.47;4962445;28;7437;-75
2021/03/09 02:56:18;;;;;;;;;;;;;;;6.31;53.88;101235.75;4986721;28;11099;-76
2021/03/09 02:58:44;;;;;;;;;;;;;;;6.28;53.57;101235.59;4984110;28;11253;-76
2021/03/09 03:01:21;;;;;;;;;;;;;;;6.28;53.95;101238.19;4957717;28;7106;-76
2021/03/09 03:04:24;;;;;;;;;;;;;;;6.26;53.89;101229.50;4928063;28;7792;-75
2021/03/09 03:07:00;;;;;;;;;;;;;;;6.26;53.77;101226.91;4974527;28;11198;-76
2021/03/09 03:09:40;;;;;;;;;;;;;;;6.24;53.48;101228.53;4958515;28;11053;-76
2021/03/09 03:12:27;;;;;;;;;;;;;;;6.22;53.76;101235.31;4977190;28;11380;-76
2021/03/09 03:15:09;;;;;;;;;;;;;;;6.22;53.63;101229.28;4951050;28;7359;-76
2021/03/09 03:17:38;;;;;;;;;;;;;;;6.21;53.84;101222.34;4937331;28;11331;-76
2021/03/09 03:20:08;;;;;;;;;;;;;;;6.21;53.82;101232.66;4956408;28;7171;-76
2021/03/09 03:22:37;;;;;;;;;;;;;;;6.18;53.70;101233.38;4957836;28;7713;-76
2021/03/09 03:25:34;;;;;;;;;;;;;;;6.17;53.69;101220.41;4958818;28;7297;-75
2021/03/09 03:28:03;;;;;;;;;;;;;;;6.15;54.05;101225.50;4984984;28;11146;-75
2021/03/09 03:30:31;;;;;;;;;;;;;;;6.13;53.71;101219.38;4976610;28;7061;-75
2021/03/09 03:33:34;;;;;;;;;;;;;;;6.14;53.93;101223.72;4981314;28;11200;-75
2021/03/09 03:36:11;;;;;;;;;;;;;;;6.13;53.77;101234.84;4956545;28;11246;-75
2021/03/09 03:38:40;;;;;;;;;;;;;;;6.10;53.81;101224.41;4965537;28;11163;-76
2021/03/09 03:41:17;;;;;;;;;;;;;;;6.08;53.91;101226.03;4965110;28;7574;-76
2021/03/09 03:44:06;;;;;;;;;;;;;;;6.08;54.08;101226.03;4961190;28;7063;-76
2021/03/09 03:46:47;;;;;;;;;;;;;;;6.07;54.37;101212.25;4984229;28;11152;-76
2021/03/09 03:49:30;;;;;;;;;;;;;;;6.07;54.18;101212.25;4945695;28;7389;-76
2021/03/09 03:52:06;;;;;;;;;;;;;;;6.06;54.11;101209.59;4982303;28;7078;-76
2021/03/09 03:57:59;;;;;;;;;;;;;;;6.03;54.19;101212.03;4972525;28;11773;-76
2021/03/09 04:00:25;;;;;;;;;;;;;;;6.02;54.01;101205.09;4947655;28;7290;-76
2021/03/09 04:02:54;;;;;;;;;;;;;;;6.00;53.83;101204.13;4959243;28;8971;-76
2021/03/09 04:05:44;;;;;;;;;;;;;;;5.98;54.09;101213.47;4944582;28;7206;-76
2021/03/09 04:08:15;;;;;;;;;;;;;;;5.96;54.36;101208.25;4972241;28;13011;-76
2021/03/09 04:10:50;;;;;;;;;;;;;;;5.98;53.87;101213.47;4963101;28;8490;-76
2021/03/09 04:13:19;;;;;;;;;;;;;;;5.95;54.15;101209.06;4977594;28;6974;-76
2021/03/09 04:15:49;;;;;;;;;;;;;;;5.95;54.18;101206.47;4981561;28;7048;-75
2021/03/09 04:18:25;;;;;;;;;;;;;;;5.94;54.44;101196.09;4997873;28;7798;-75
2021/03/09 04:20:56;;;;;;;;;;;;;;;5.95;54.49;101213.34;4983954;28;7490;-76
2021/03/09 04:23:27;;;;;;;;;;;;;;;5.94;54.43;101201.25;4982368;28;6833;-76
2021/03/09 04:25:55;;;;;;;;;;;;;;;5.92;54.16;101202.88;4968504;28;8577;-75
2021/03/09 04:28:30;;;;;;;;;;;;;;;5.93;54.11;101207.22;4953120;28;7389;-76
2021/03/09 04:30:56;;;;;;;;;;;;;;;5.91;54.54;101206.25;4969172;28;6971;-75
2021/03/09 04:33:36;;;;;;;;;;;;;;;5.90;54.41;101204.50;4965574;28;8465;-75
2021/03/09 04:36:06;;;;;;;;;;;;;;;5.90;54.33;101202.81;4976850;28;12155;-75
2021/03/09 04:38:35;;;;;;;;;;;;;;;5.88;54.58;101204.38;4965569;28;12896;-76
2021/03/09 04:41:01;;;;;;;;;;;;;;;5.89;54.39;101203.59;4952126;28;11358;-76
2021/03/09 04:43:33;;;;;;;;;;;;;;;5.89;54.55;101202.69;4959947;28;7061;-76
2021/03/09 04:46:13;;;;;;;;;;;;;;;5.89;54.49;101205.28;4946692;28;7378;-75
2021/03/09 04:48:42;;;;;;;;;;;;;;;5.88;54.56;101200.94;4956573;28;11023;-76
2021/03/09 04:51:11;;;;;;;;;;;;;;;5.87;54.20;101199.16;4963588;28;7581;-76
2021/03/09 04:53:45;;;;;;;;;;;;;;;5.87;54.87;101194.00;4970043;28;7471;-75
2021/03/09 04:56:10;;;;;;;;;;;;;;;5.86;54.89;101199.97;4981667;28;8051;-76
2021/03/09 04:58:41;;;;;;;;;;;;;;;5.86;54.74;101200.84;4957260;28;7063;-76
2021/03/09 05:01:18;;;;;;;;;;;;;;;5.85;54.65;101201.66;4958167;28;7139;-75
2021/03/09 05:03:44;;;;;;;;;;;;;;;5.85;54.41;101196.50;4935587;28;7193;-75
2021/03/09 05:06:15;;;;;;;;;;;;;;;5.87;54.90;101205.19;4949292;28;7288;-75
2021/03/09 05:08:49;;;;;;;;;;;;;;;5.86;54.89;101205.13;4972879;28;6884;-76
2021/03/09 05:11:24;;;;;;;;;;;;;;;5.85;54.77;101205.94;4955602;28;6994;-75
2021/03/09 05:13:59;;;;;;;;;;;;;;;5.85;54.43;101198.22;4969732;28;6928;-76
2021/03/09 05:16:27;;;;;;;;;;;;;;;5.83;55.27;101198.13;4933557;28;7438;-74
2021/03/09 05:19:03;;;;;;;;;;;;;;;5.85;55.22;101200.78;4963888;28;7107;-74
2021/03/09 05:21:31;;;;;;;;;;;;;;;5.82;54.77;101198.94;4993811;28;6832;-75
2021/03/09 05:27:28;;;;;;;;;;;;;;;5.81;54.84;101202.34;4976469;28;11095;-74
2021/03/09 05:30:18;;;;;;;;;;;;;;;5.82;54.80;101205.78;4998919;28;11163;-74
2021/03/09 05:32:53;;;;;;;;;;;;;;;5.81;54.85;101197.19;4979971;28;12428;-75
2021/03/09 05:35:26;;;;;;;;;;;;;;;5.80;54.90;101197.94;4986541;28;7019;-75
2021/03/09 05:37:56;;;;;;;;;;;;;;;5.78;55.24;101194.41;4964581;28;8586;-75
2021/03/09 05:40:27;;;;;;;;;;;;;;;5.79;54.85;101191.91;4962115;28;6838;-75
2021/03/09 05:42:54;;;;;;;;;;;;;;;5.86;54.94;101197.41;4987861;28;7326;-76
2021/03/09 05:45:26;;;;;;;;;;;;;;;5.94;54.67;101185.78;4972105;28;8630;-75
2021/03/09 05:48:23;;;;;;;;;;;;;;;5.99;54.73;101192.94;4982486;28;6954;-77
2021/03/09 05:50:53;;;;;;;;;;;;;;;6.03;54.91;101191.41;4982092;28;11028;-75
2021/03/09 05:53:22;;;;;;;;;;;;;;;6.06;54.50;101183.81;4977423;28;7004;-79
2021/03/09 05:56:24;;;;;;;;;;;;;;;6.06;54.65;101188.97;4981155;28;9613;-79
2021/03/09 05:58:54;;;;;;;;;;;;;;;6.09;54.90;101182.25;4961315;28;11145;-79
2021/03/09 06:01:42;;;;;;;;;;;;;;;6.12;54.58;101186.69;4975327;28;8367;-80
2021/03/09 06:04:27;;;;;;;;;;;;;;;6.15;54.59;101188.50;4981942;28;7300;-77
2021/03/09 06:06:53;;;;;;;;;;;;;;;6.17;54.53;101184.31;4986544;28;7201;-77
2021/03/09 06:09:38;;;;;;;;;;;;;;;6.20;54.64;101184.44;4974051;28;7414;-78
2021/03/09 06:12:20;;;;;;;;;;;;;;;6.21;54.26;101184.56;5017042;28;12661;-77
2021/03/09 06:15:04;;;;;;;;;;;;;;;6.26;54.55;101180.50;5006750;28;13021;-78
2021/03/09 06:17:40;;;;;;;;;;;;;;;6.25;54.51;101183.00;5007680;28;7722;-77
2021/03/09 06:20:06;;;;;;;;;;;;;;;6.29;53.99;101180.63;5003690;28;11094;-78
2021/03/09 06:22:59;;;;;;;;;;;;;;;6.31;54.19;101175.53;4994898;28;6821;-77
2021/03/09 06:25:29;;;;;;;;;;;;;;;6.33;54.40;101176.50;4990070;28;11280;-78
2021/03/09 06:28:00;;;;;;;;;;;;;;;6.36;54.39;101177.53;4995750;28;7233;-78
2021/03/09 06:30:35;;;;;;;;;;;;;;;6.42;54.04;101173.47;4977172;28;7089;-76
2021/03/09 06:33:03;;;;;;;;;;;;;;;6.42;54.35;101161.47;5028928;28;6905;-78
2021/03/09 06:35:50;;;;;;;;;;;;;;;6.43;54.35;101170.97;5001892;28;7663;-78
2021/03/09 06:38:26;;;;;;;;;;;;;;;6.48;54.34;101166.91;5034195;28;12534;-78
2021/03/09 06:41:12;;;;;;;;;;;;;;;6.50;53.95;101161.81;5021087;28;8069;-79
2021/03/09 06:43:42;;;;;;;;;;;;;;;6.53;54.09;101159.34;5034443;28;11393;-78
2021/03/09 06:46:20;;;;;;;;;;;;;;;6.57;54.36;101161.25;4996127;28;11101;-78
2021/03/09 06:48:47;;;;;;;;;;;;;;;6.58;53.96;101157.88;5013831;28;11030;-79
2021/03/09 06:51:34;;;;;;;;;;;;;;;6.58;54.12;101160.44;5000408;28;7713;-79
2021/03/09 06:54:01;;;;;;;;;;;;;;;6.63;54.15;101158.97;5036616;28;7006;-78
2021/03/09 06:56:35;;;;;;;;;;;;;;;6.65;54.39;101159.94;5024447;28;6792;-78
2021/03/09 06:59:32;;;;;;;;;;;;;;;6.68;54.04;101163.53;5005389;28;7279;-78
2021/03/09 07:02:22;;;;;;;;;;;;;;;6.72;53.91;101156.81;5019491;28;11292;-78
2021/03/09 07:05:13;;;;;;;;;;;;;;;6.77;54.14;101164.75;5022394;28;11111;-78
2021/03/09 07:07:47;;;;;;;;;;;;;;;6.76;53.81;101157.81;5017531;28;12229;-78
2021/03/09 07:10:14;;;;;;;;;;;;;;;6.77;53.90;101167.34;5011701;28;10968;-79
2021/03/09 07:12:41;;;;;;;;;;;;;;;6.80;53.97;101170.94;4982265;28;7293;-78
2021/03/09 07:15:08;;;;;;;;;;;;;;;6.87;53.94;101166.94;5018317;28;7100;-78
2021/03/09 07:17:42;;;;;;;;;;;;;;;6.89;54.02;101168.78;4990325;28;6800;-79
2021/03/09 07:20:11;;;;;;;;;;;;;;;6.99;53.61;101172.63;5008397;28;11259;-79
2021/03/09 07:22:38;;;;;;;;;;;;;;;7.04;53.51;101181.50;4993707;28;11362;-78
2021/03/09 07:25:12;;;;;;;;;;;;;;;7.10;53.37;101175.69;5030128;28;6800;-78
2021/03/09 07:27:45;;;;;;;;;;;;;;;7.18;53.17;101174.31;4996958;28;13230;-78
2021/03/09 07:30:15;;;;;;;;;;;;;;;7.22;53.71;101165.91;5012535;28;11043;-79
2021/03/09 07:32:46;;;;;;;;;;;;;;;7.29;53.12;101168.81;5008107;28;11225;-78
2021/03/09 07:35:15;;;;;;;;;;;;;;;7.39;52.84;101172.66;5009265;28;7045;-79
2021/03/09 07:37:46;;;;;;;;;;;;;;;7.40;52.93;101174.44;5001715;28;7357;-79
2021/03/09 07:40:17;;;;;;;;;;;;;;;7.41;53.37;101181.38;5017823;28;7136;-79
2021/03/09 07:42:43;;;;;;;;;;;;;;;7.42;53.48;101180.56;5016017;28;8334;-79
2021/03/09 07:45:16;;;;;;;;;;;;;;;7.49;52.97;101176.53;5021316;28;7198;-78
2021/03/09 07:48:01;;;;;;;;;;;;;;;7.51;52.91;101177.47;5008866;28;10954;-78
2021/03/09 07:50:45;;;;;;;;;;;;;;;7.54;52.80;101175.91;5014909;28;7149;-78
2021/03/09 07:53:29;;;;;;;;;;;;;;;7.55;53.36;101175.09;5007149;28;11334;-79
2021/03/09 07:56:05;;;;;;;;;;;;;;;7.59;52.90;101174.38;5026439;28;6876;-79
2021/03/09 07:58:37;;;;;;;;;;;;;;;7.59;53.22;101173.50;5012091;28;7714;-78
2021/03/09 08:01:09;;;;;;;;;;;;;;;7.59;53.02;101171.81;5006956;28;6924;-78
2021/03/09 08:03:42;;;;;;;;;;;;;;;7.62;53.05;101176.25;5014750;28;8757;-78
2021/03/09 08:06:20;;;;;;;;;;;;;;;7.64;52.87;101177.19;5005843;28;11326;-78
2021/03/09 08:08:51;;;;;;;;;;;;;;;7.63;53.02;101170.25;5004859;28;11079;-78
2021/03/09 08:11:20;;;;;;;;;;;;;;;7.65;52.96;101165.16;5022208;28;7625;-78
2021/03/09 08:14:03;;;;;;;;;;;;;;;7.68;53.19;101165.28;4987236;28;7582;-79
2021/03/09 08:16:38;;;;;;;;;;;;;;;7.73;52.84;101168.91;4993459;28;7124;-79
2021/03/09 08:19:25;;;;;;;;;;;;;;;7.77;53.08;101166.50;4962963;28;8828;-78
2021/03/09 08:21:57;;;;;;;;;;;;;;;7.85;52.80;101167.72;4995794;28;11193;-79
2021/03/09 08:24:47;;;;;;;;;;;;;;;7.91;52.79;101162.78;4988185;28;7772;-79
2021/03/09 08:27:28;;;;;;;;;;;;;;;7.98;52.62;101163.03;4992198;28;11496;-78
2021/03/09 08:30:17;;;;;;;;;;;;;;;8.05;52.63;101165.94;5028955;28;6987;-78
2021/03/09 08:32:45;;;;;;;;;;;;;;;8.16;51.90;101164.66;5006729;28;11075;-78
2021/03/09 08:35:18;;;;;;;;;;;;;;;8.37;51.77;101156.88;5011028;28;6799;-78
2021/03/09 08:37:54;;;;;;;;;;;;;;;8.59;51.57;101155.09;5021825;28;11489;-78
2021/03/09 08:40:23;;;;;;;;;;;;;;;8.63;51.21;101162.19;5021680;28;6829;-78
2021/03/09 08:43:07;;;;;;;;;;;;;;;8.62;51.89;101160.41;5000556;28;7358;-78
2021/03/09 08:45:43;;;;;;;;;;;;;;;8.60;51.86;101157.75;5008260;28;7906;-78
2021/03/09 08:48:44;;;;;;;;;;;;;;;8.61;51.87;101159.53;5008419;28;11409;-78
2021/03/09 08:51:41;;;;;;;;;;;;;;;8.65;51.82;101151.06;4997736;28;11011;-78
2021/03/09 08:54:36;;;;;;;;;;;;;;;8.73;51.78;101153.91;5013456;28;11508;-78
2021/03/09 08:57:13;;;;;;;;;;;;;;;8.78;51.73;101154.97;4993831;28;12684;-78
2021/03/09 08:59:44;;;;;;;;;;;;;;;8.81;51.52;101153.41;4997222;28;7132;-78
2021/03/09 09:02:13;;;;;;;;;;;;;;;8.83;51.66;101153.44;4996423;28;7134;-79
2021/03/09 09:04:58;;;;;;;;;;;;;;;8.86;51.55;101152.66;5005505;28;6983;-78
2021/03/09 09:07:40;;;;;;;;;;;;;;;8.85;51.64;101151.78;5013976;28;12894;-78
2021/03/09 09:10:07;;;;;;;;;;;;;;;8.87;51.43;101151.84;4983298;28;6824;-78
2021/03/09 09:12:36;;;;;;;;;;;;;;;8.86;51.98;101145.78;4980705;28;7420;-78
2021/03/09 09:15:28;;;;;;;;;;;;;;;8.87;51.56;101144.06;5002583;28;7901;-79
2021/03/09 09:18:00;;;;;;;;;;;;;;;8.91;51.95;101145.94;4996584;28;11181;-77
2021/03/09 09:20:35;;;;;;;;;;;;;;;8.93;51.45;101150.34;5008584;28;6968;-78
2021/03/09 09:23:26;;;;;;;;;;;;;;;8.95;51.69;101137.44;4990595;28;6806;-78
2021/03/09 09:26:05;;;;;;;;;;;;;;;9.01;51.30;101142.84;5003139;28;10971;-78
2021/03/09 09:28:32;;;;;;;;;;;;;;;8.99;51.28;101147.09;5019649;28;7342;-78
2021/03/09 09:31:05;;;;;;;;;;;;;;;8.98;51.75;101147.91;5015745;28;7324;-79
2021/03/09 09:33:33;;;;;;;;;;;;;;;9.00;51.67;101143.66;4998986;28;6800;-78
2021/03/09 09:35:59;;;;;;;;;;;;;;;9.00;51.68;101141.97;5006572;28;6799;-78
2021/03/09 09:38:25;;;;;;;;;;;;;;;9.07;52.17;101143.09;4996691;28;7257;-78
2021/03/09 09:40:58;;;;;;;;;;;;;;;9.12;51.35;101142.41;5016787;28;8048;-78
2021/03/09 09:43:26;;;;;;;;;;;;;;;9.16;51.49;101140.78;4982768;28;7479;-78
2021/03/09 09:45:53;;;;;;;;;;;;;;;9.22;51.20;101130.66;4986172;28;8326;-78
2021/03/09 09:48:40;;;;;;;;;;;;;;;9.26;51.36;101136.84;5010491;28;7184;-78
2021/03/09 09:51:22;;;;;;;;;;;;;;;9.36;51.31;101139.78;5000946;28;7517;-78
2021/03/09 09:53:49;;;;;;;;;;;;;;;9.44;51.00;101132.28;5009719;28;11089;-78
2021/03/09 09:56:20;;;;;;;;;;;;;;;9.45;51.37;101134.03;4986373;28;11233;-78
2021/03/09 09:58:46;;;;;;;;;;;;;;;9.45;51.42;101134.03;5005217;28;10960;-79
2021/03/09 10:01:22;;;;;;;;;;;;;;;9.46;51.49;101135.81;5006248;28;8693;-78
2021/03/09 10:04:02;;;;;;;;;;;;;;;9.56;51.08;101129.19;5006520;28;11075;-78
2021/03/09 10:06:40;;;;;;;;;;;;;;;9.63;50.98;101124.28;5005942;28;11046;-79
2021/03/09 10:09:33;;;;;;;;;;;;;;;9.73;51.01;101130.63;4987354;28;6982;-78
2021/03/09 10:12:04;;;;;;;;;;;;;;;9.77;50.93;101123.00;5013130;28;11317;-79
2021/03/09 10:14:32;;;;;;;;;;;;;;;9.80;50.76;101118.75;5013305;28;7239;-79
2021/03/09 10:17:02;;;;;;;;;;;;;;;9.80;50.62;101118.75;5019227;28;6997;-77
2021/03/09 10:19:37;;;;;;;;;;;;;;;9.83;50.46;101121.47;5009471;28;7285;-78
2021/03/09 10:22:03;;;;;;;;;;;;;;;9.80;50.96;101124.81;4991379;28;7126;-79
2021/03/09 10:24:54;;;;;;;;;;;;;;;9.79;51.24;101128.25;5003554;28;6872;-79
2021/03/09 10:27:42;;;;;;;;;;;;;;;9.84;50.99;101124.09;5010293;28;10975;-78
2021/03/09 10:30:11;;;;;;;;;;;;;;;9.95;50.41;101127.03;4996961;28;6868;-78
2021/03/09 10:32:57;;;;;;;;;;;;;;;9.97;50.52;101126.22;5001390;28;8604;-78
2021/03/09 10:35:27;;;;;;;;;;;;;;;9.99;50.59;101128.88;5010964;28;10977;-78
2021/03/09 10:38:04;;;;;;;;;;;;;;;10.00;50.87;101118.53;5026464;28;6811;-79
2021/03/09 10:40:52;;;;;;;;;;;;;;;10.03;51.00;101130.75;4994131;28;7276;-78
2021/03/09 10:43:43;;;;;;;;;;;;;;;10.05;50.57;101126.50;4999847;28;11470;-79
2021/03/09 10:46:11;;;;;;;;;;;;;;;10.08;50.74;101118.81;5010428;28;12808;-79
2021/03/09 10:48:38;;;;;;;;;;;;;;;10.10;50.71;101130.09;5007376;28;6801;-78
2021/03/09 10:51:20;;;;;;;;;;;;;;;10.17;50.36;101118.19;5005935;28;7161;-78
2021/03/09 10:53:46;;;;;;;;;;;;;;;10.26;50.09;101121.13;4980391;28;11030;-78
2021/03/09 10:56:14;;;;;;;;;;;;;;;10.40;50.31;101121.50;5005377;28;6838;-78
2021/03/09 10:58:45;;;;;;;;;;;;;;;10.48;49.58;101123.50;5004892;28;6867;-78
2021/03/09 11:01:15;;;;;;;;;;;;;;;10.50;50.00;101128.75;5018098;28;6831;-79
2021/03/09 11:03:44;;;;;;;;;;;;;;;10.42;50.47;101125.06;5003640;28;7087;-78
2021/03/09 11:06:14;;;;;;;;;;;;;;;10.39;50.69;101122.34;4991356;28;7203;-79
2021/03/09 11:08:45;;;;;;;;;;;;;;;10.32;51.02;101123.88;4980364;28;7043;-78
2021/03/09 11:11:18;;;;;;;;;;;;;;;10.27;50.70;101128.06;5000933;28;7583;-78
2021/03/09 11:13:44;;;;;;;;;;;;;;;10.25;50.93;101127.13;5030358;28;6807;-78
2021/03/09 11:16:15;;;;;;;;;;;;;;;10.23;50.70;101126.22;4996832;28;6983;-78
2021/03/09 11:18:40;;;;;;;;;;;;;;;10.26;51.31;101131.50;4979766;28;7236;-78
2021/03/09 11:21:12;;;;;;;;;;;;;;;10.30;50.92;101131.63;4996987;28;7337;-79
2021/03/09 11:23:44;;;;;;;;;;;;;;;10.41;51.13;101129.38;5008858;28;7224;-78
2021/03/09 11:26:10;;;;;;;;;;;;;;;10.47;50.83;101128.66;4996362;28;7537;-78
2021/03/09 11:28:44;;;;;;;;;;;;;;;10.48;50.41;101128.72;4997923;28;7268;-78
2021/03/09 11:31:10;;;;;;;;;;;;;;;10.58;50.35;101122.94;4996703;28;6977;-78
2021/03/09 11:33:38;;;;;;;;;;;;;;;10.68;50.42;101118.00;4997586;28;6983;-78
2021/03/09 11:36:04;;;;;;;;;;;;;;;10.76;50.61;101114.78;5005325;28;6922;-78
2021/03/09 11:38:33;;;;;;;;;;;;;;;10.84;49.73;101115.91;5011667;28;7268;-78
2021/03/09 11:41:09;;;;;;;;;;;;;;;10.80;50.59;101108.84;4992868;28;7356;-78
2021/03/09 11:43:35;;;;;;;;;;;;;;;10.76;50.26;101111.31;4988784;28;7174;-78
2021/03/09 11:46:06;;;;;;;;;;;;;;;10.75;50.47;101112.16;5004224;28;6812;-79
2021/03/09 11:48:40;;;;;;;;;;;;;;;10.77;50.20;101113.06;4998529;28;7163;-78
2021/03/09 11:51:08;;;;;;;;;;;;;;;10.78;50.74;101104.44;4995075;28;8232;-79
2021/03/09 11:53:39;;;;;;;;;;;;;;;10.79;50.75;101119.19;5005132;28;8425;-77
2021/03/09 11:56:19;;;;;;;;;;;;;;;10.82;50.79;101111.50;5008762;28;7550;-78
2021/03/09 11:58:47;;;;;;;;;;;;;;;10.82;50.41;101102.00;4998370;28;7137;-76
2021/03/09 12:01:13;;;;;;;;;;;;;;;10.82;50.58;101109.78;5009979;28;6812;-73
2021/03/09 12:03:42;;;;;;;;;;;;;;;10.81;50.58;101105.44;4989989;28;6863;-74
2021/03/09 12:06:20;;;;;;;;;;;;;;;10.80;50.77;101095.84;4973441;28;7131;-76
2021/03/09 12:08:50;;;;;;;;;;;;;;;10.83;50.97;101102.88;4941840;28;7905;-76
2021/03/09 12:11:16;;;;;;;;;;;;;;;10.88;50.55;101090.88;4948977;28;6884;-75
2021/03/09 12:13:44;;;;;;;;;;;;;;;10.91;50.45;101097.03;4966070;28;8436;-75
2021/03/09 12:16:13;;;;;;;;;;;;;;;10.94;50.36;101088.44;4990562;28;7888;-74
2021/03/09 12:18:51;;;;;;;;;;;;;;;10.95;50.55;101092.78;4975549;28;7449;-75
2021/03/09 12:21:18;;;;;;;;;;;;;;;11.00;50.46;101091.19;4995776;28;6967;-76
2021/03/09 12:24:21;;;;;;;;;;;;;;;11.02;50.82;101089.53;4995692;28;7923;-76
2021/03/09 12:26:50;;;;;;;;;;;;;;;11.00;50.53;101079.91;5009670;28;8326;-76
2021/03/09 12:29:16;;;;;;;;;;;;;;;10.97;50.42;101078.13;4981786;28;6880;-75
2021/03/09 12:31:55;;;;;;;;;;;;;;;10.94;50.73;101081.53;4955433;28;6840;-75
2021/03/09 12:34:26;;;;;;;;;;;;;;;10.96;50.88;101084.16;4992805;28;11289;-74
2021/03/09 12:36:51;;;;;;;;;;;;;;;10.95;50.96;101079.81;4972506;28;13381;-76
2021/03/09 12:39:30;;;;;;;;;;;;;;;11.02;51.34;101086.94;4944488;28;6849;-77
2021/03/09 12:42:09;;;;;;;;;;;;;;;;;;;;;
2021/03/09 12:44:44;;;;;;;;;;;;;;;11.05;50.94;101079.22;4975968;28;7059;-74
2021/03/09 12:47:16;;;;;;;;;;;;;;;11.05;50.73;101071.44;4952516;28;6983;-74
2021/03/09 12:49:45;;;;;;;;;;;;;;;11.08;51.29;101066.31;4981520;28;7271;-75
2021/03/09 12:52:37;;;;;;;;;;;;;;;11.16;50.61;101062.16;5005227;28;6799;-75
2021/03/09 12:55:11;;;;;;;;;;;;;;;11.23;50.25;101065.81;5002131;28;12445;-73
2021/03/09 13:01:14;;;;;;;;;;;;;;;11.24;50.39;101052.88;4997025;28;7193;-75
2021/03/09 13:03:43;;;;;;;;;;;;;;;11.27;50.47;101045.13;4974681;28;7179;-75
2021/03/09 13:06:17;;;;;;;;;;;;;;;11.33;50.52;101043.53;4988545;28;7456;-75
2021/03/09 13:08:48;;;;;;;;;;;;;;;11.24;51.13;101042.47;4986287;28;7002;-75
2021/03/09 13:11:14;;;;;;;;;;;;;;;11.24;51.15;101039.00;4962069;28;7238;-76
2021/03/09 13:13:44;;;;;;;;;;;;;;;11.30;51.08;101041.72;4951681;28;7015;-74
2021/03/09 13:16:09;;;;;;;;;;;;;;;11.30;51.10;101044.34;4948055;28;6812;-76
2021/03/09 13:18:41;;;;;;;;;;;;;;;11.25;51.29;101040.75;4983813;28;6860;-74
2021/03/09 13:21:18;;;;;;;;;;;;;;;11.14;51.41;101043.06;4976179;28;7251;-74
2021/03/09 13:23:45;;;;;;;;;;;;;;;11.17;51.49;101035.34;4980815;28;7010;-74
2021/03/09 13:26:18;;;;;;;;;;;;;;;11.20;50.94;101035.41;4953386;28;7146;-74
2021/03/09 13:28:49;;;;;;;;;;;;;;;11.27;51.22;101039.94;4972523;28;7530;-74
2021/03/09 13:31:18;;;;;;;;;;;;;;;11.25;51.28;101039.03;4941984;28;6957;-74
2021/03/09 13:33:45;;;;;;;;;;;;;;;11.21;50.83;101039.78;4970633;28;7238;-75
2021/03/09 13:36:14;;;;;;;;;;;;;;;11.19;50.91;101041.44;4960026;28;6805;-76
2021/03/09 13:38:53;;;;;;;;;;;;;;;11.19;50.82;101043.16;4964502;28;7367;-76
2021/03/09 13:41:22;;;;;;;;;;;;;;;11.11;51.81;101040.38;4990103;28;7172;-76
2021/03/09 13:43:51;;;;;;;;;;;;;;;11.05;51.35;101048.03;4989890;28;7272;-75
2021/03/09 13:46:19;;;;;;;;;;;;;;;11.06;51.44;101044.59;4987286;28;7475;-77
2021/03/09 13:48:53;;;;;;;;;;;;;;;11.08;51.76;101042.91;5004656;28;7024;-78
2021/03/09 13:51:22;;;;;;;;;;;;;;;11.16;51.81;101045.69;4977945;28;7031;-75
2021/03/09 13:54:10;;;;;;;;;;;;;;;11.26;51.07;101037.31;4982007;28;9275;-76
2021/03/09 13:57:36;;;;;;;;;;;;;;;11.37;51.07;101032.34;4961974;28;7094;-77
2021/03/09 14:00:14;;;;;;;;;;;;;;;11.30;51.19;101033.94;4985708;28;11480;-76
2021/03/09 14:02:40;;;;;;;;;;;;;;;11.23;51.45;101032.03;5000065;28;6959;-76